createdAt,value
2019-02-22T00:02:39.146Z,13.40
2019-02-22T00:05:11.095Z,13.30
2019-02-22T00:07:42.884Z,13.30
2019-02-22T00:10:14.558Z,13.30
2019-02-22T00:12:46.327Z,13.30
2019-02-22T00:15:18.160Z,13.30
2019-02-22T00:17:49.988Z,13.30
2019-02-22T00:20:21.891Z,13.30
2019-02-22T00:22:54.115Z,13.30
2019-02-22T00:25:26.037Z,13.30
2019-02-22T00:27:57.831Z,13.30
2019-02-22T00:30:29.589Z,13.30
2019-02-22T00:33:02.440Z,13.30
2019-02-22T00:35:34.562Z,13.30
2019-02-22T00:38:09.872Z,13.30
2019-02-22T00:40:41.652Z,13.30
2019-02-22T00:43:13.520Z,13.30
2019-02-22T00:45:45.203Z,13.30
2019-02-22T00:48:16.965Z,13.30
2019-02-22T00:50:48.651Z,13.30
2019-02-22T00:53:20.594Z,13.30
2019-02-22T00:55:52.271Z,13.30
2019-02-22T00:58:23.985Z,13.30
2019-02-22T01:00:55.685Z,13.30
2019-02-22T01:03:27.412Z,13.30
2019-02-22T01:05:59.102Z,13.30
2019-02-22T01:08:30.797Z,13.30
2019-02-22T01:11:02.954Z,13.30
2019-02-22T01:13:34.622Z,13.30
2019-02-22T01:16:06.350Z,13.30
2019-02-22T01:18:38.161Z,13.30
2019-02-22T01:21:09.812Z,13.20
2019-02-22T01:23:41.594Z,13.20
2019-02-22T01:26:13.327Z,13.20
2019-02-22T01:28:44.985Z,13.20
2019-02-22T01:31:16.725Z,13.20
2019-02-22T01:33:48.396Z,13.20
2019-02-22T01:36:20.062Z,13.20
2019-02-22T01:38:51.815Z,13.20
2019-02-22T01:41:23.540Z,13.20
2019-02-22T01:43:55.220Z,13.20
2019-02-22T01:46:26.990Z,13.20
2019-02-22T01:48:58.681Z,13.20
2019-02-22T01:51:30.352Z,13.20
2019-02-22T01:54:02.078Z,13.20
2019-02-22T01:56:33.790Z,13.20
2019-02-22T01:59:05.602Z,12.00
2019-02-22T02:01:37.285Z,13.20
2019-02-22T02:04:08.975Z,13.20
2019-02-22T02:06:40.617Z,13.20
2019-02-22T02:09:12.468Z,13.20
2019-02-22T02:11:44.309Z,13.20
2019-02-22T02:14:16.111Z,13.20
2019-02-22T02:16:47.752Z,13.20
2019-02-22T02:19:19.489Z,13.20
2019-02-22T02:21:51.225Z,13.20
2019-02-22T02:24:22.934Z,13.20
2019-02-22T02:26:54.615Z,13.20
2019-02-22T02:29:26.340Z,13.20
2019-02-22T02:31:58.016Z,13.20
2019-02-22T02:34:29.680Z,13.20
2019-02-22T02:37:01.381Z,13.20
2019-02-22T02:39:33.049Z,13.20
2019-02-22T02:42:04.824Z,13.20
2019-02-22T02:44:36.681Z,13.20
2019-02-22T02:47:08.353Z,13.20
2019-02-22T02:49:40.003Z,13.20
2019-02-22T02:52:11.662Z,13.20
2019-02-22T02:54:43.371Z,13.20
2019-02-22T02:57:15.027Z,13.20
2019-02-22T02:59:46.943Z,13.20
2019-02-22T03:02:30.803Z,13.20
2019-02-22T03:05:02.522Z,13.20
2019-02-22T03:07:45.008Z,13.20
2019-02-22T03:10:16.656Z,13.20
2019-02-22T03:12:48.330Z,13.20
2019-02-22T03:15:20.421Z,13.20
2019-02-22T03:17:52.215Z,13.00
2019-02-22T03:20:23.926Z,13.20
2019-02-22T03:22:55.601Z,13.20
2019-02-22T03:25:27.268Z,13.20
2019-02-22T03:27:58.981Z,13.20
2019-02-22T03:30:30.890Z,13.20
2019-02-22T03:33:02.687Z,13.20
2019-02-22T03:35:34.332Z,13.20
2019-02-22T03:38:06.119Z,13.20
2019-02-22T03:40:39.126Z,13.20
2019-02-22T03:43:10.770Z,13.20
2019-02-22T03:45:42.443Z,13.20
2019-02-22T03:48:14.174Z,13.20
2019-02-22T03:50:45.928Z,13.20
2019-02-22T03:53:48.753Z,13.20
2019-02-22T03:56:20.448Z,13.20
2019-02-22T03:58:52.127Z,13.20
2019-02-22T04:01:23.902Z,13.20
2019-02-22T04:03:55.574Z,13.10
2019-02-22T04:06:27.332Z,13.10
2019-02-22T04:08:59.177Z,13.10
2019-02-22T04:11:30.830Z,13.10
2019-02-22T04:14:02.705Z,13.10
2019-02-22T04:16:34.392Z,13.10
2019-02-22T04:19:06.050Z,13.10
2019-02-22T04:21:37.741Z,13.10
2019-02-22T04:24:09.610Z,13.10
2019-02-22T04:26:41.294Z,13.10
2019-02-22T04:29:12.998Z,13.10
2019-02-22T04:31:44.673Z,13.10
2019-02-22T04:34:16.382Z,13.10
2019-02-22T04:36:48.168Z,13.10
2019-02-22T04:39:19.829Z,13.10
2019-02-22T04:41:58.035Z,13.10
2019-02-22T04:44:24.979Z,13.10
2019-02-22T04:46:56.697Z,13.10
2019-02-22T04:49:28.364Z,13.10
2019-02-22T04:52:00.072Z,13.10
2019-02-22T04:54:31.774Z,13.00
2019-02-22T04:57:03.509Z,13.10
2019-02-22T04:59:35.145Z,13.10
2019-02-22T05:02:06.822Z,13.10
2019-02-22T05:04:38.503Z,13.10
2019-02-22T05:07:10.275Z,13.10
2019-02-22T05:09:42.012Z,13.10
2019-02-22T05:12:13.735Z,13.10
2019-02-22T05:14:45.427Z,13.10
2019-02-22T05:17:17.243Z,13.10
2019-02-22T05:19:48.935Z,13.10
2019-02-22T05:22:20.591Z,13.10
2019-02-22T05:24:52.298Z,13.10
2019-02-22T05:27:24.010Z,13.10
2019-02-22T05:29:55.882Z,13.10
2019-02-22T05:32:27.691Z,13.10
2019-02-22T05:34:59.367Z,13.10
2019-02-22T05:37:31.156Z,13.10
2019-02-22T05:40:02.929Z,13.10
2019-02-22T05:42:34.707Z,13.10
2019-02-22T05:45:06.847Z,13.10
2019-02-22T05:47:38.670Z,13.10
2019-02-22T05:50:13.227Z,13.10
2019-02-22T05:52:51.452Z,13.10
2019-02-22T05:55:23.217Z,13.10
2019-02-22T05:57:55.067Z,13.10
2019-02-22T06:00:26.995Z,13.00
2019-02-22T06:02:58.779Z,13.10
2019-02-22T06:05:30.742Z,13.10
2019-02-22T06:08:02.556Z,13.10
2019-02-22T06:10:34.905Z,13.10
2019-02-22T06:13:06.593Z,13.10
2019-02-22T06:15:38.417Z,13.10
2019-02-22T06:18:10.084Z,12.80
2019-02-22T06:20:41.753Z,13.10
2019-02-22T06:23:13.470Z,13.10
2019-02-22T06:25:46.688Z,13.10
2019-02-22T06:28:18.405Z,13.10
2019-02-22T06:30:50.338Z,13.10
2019-02-22T06:33:22.108Z,13.10
2019-02-22T06:35:53.858Z,13.10
2019-02-22T06:38:25.913Z,13.20
2019-02-22T06:40:57.811Z,13.10
2019-02-22T06:43:30.394Z,13.20
2019-02-22T06:46:02.197Z,13.20
2019-02-22T06:48:34.176Z,13.20
2019-02-22T06:51:05.885Z,13.20
2019-02-22T06:53:37.666Z,13.20
2019-02-22T06:56:09.366Z,13.20
2019-02-22T06:58:41.212Z,13.20
2019-02-22T07:01:12.966Z,13.20
2019-02-22T07:03:45.284Z,13.20
2019-02-22T07:06:17.174Z,13.10
2019-02-22T07:08:49.146Z,13.20
2019-02-22T07:11:39.860Z,13.20
2019-02-22T07:14:11.747Z,13.20
2019-02-22T07:16:43.595Z,13.30
2019-02-22T07:19:15.423Z,13.30
2019-02-22T07:21:52.794Z,13.30
2019-02-22T07:24:20.744Z,13.30
2019-02-22T07:26:52.518Z,13.30
2019-02-22T07:29:24.700Z,13.30
2019-02-22T07:32:05.201Z,13.30
2019-02-22T07:34:30.047Z,13.30
2019-02-22T07:37:02.592Z,13.40
2019-02-22T07:39:34.228Z,13.40
2019-02-22T07:42:06.119Z,13.40
2019-02-22T07:44:37.824Z,13.40
2019-02-22T07:47:09.741Z,13.30
2019-02-22T07:49:41.449Z,13.40
2019-02-22T07:52:13.512Z,13.40
2019-02-22T07:54:47.087Z,13.40
2019-02-22T07:57:19.007Z,13.40
2019-02-22T07:59:50.920Z,13.40
2019-02-22T08:02:22.718Z,13.50
2019-02-22T08:04:54.845Z,13.50
2019-02-22T08:07:26.694Z,13.40
2019-02-22T08:09:58.507Z,13.50
2019-02-22T08:12:30.257Z,13.50
2019-02-22T08:15:02.038Z,13.60
2019-02-22T08:17:33.704Z,13.60
2019-02-22T08:20:06.001Z,13.60
2019-02-22T08:22:37.780Z,13.60
2019-02-22T08:25:09.759Z,13.70
2019-02-22T08:27:52.693Z,13.70
2019-02-22T08:30:16.689Z,13.70
2019-02-22T08:32:48.433Z,13.70
2019-02-22T08:35:20.317Z,13.70
2019-02-22T08:37:52.044Z,13.70
2019-02-22T08:40:24.530Z,13.70
2019-02-22T08:42:56.286Z,13.80
2019-02-22T08:45:28.106Z,13.80
2019-02-22T08:47:59.926Z,13.80
2019-02-22T08:50:31.824Z,13.90
2019-02-22T08:53:03.509Z,13.90
2019-02-22T08:55:36.712Z,13.90
2019-02-22T08:58:08.621Z,13.90
2019-02-22T09:00:40.382Z,14.00
2019-02-22T09:03:12.451Z,14.00
2019-02-22T09:05:44.143Z,14.10
2019-02-22T09:08:15.933Z,14.10
2019-02-22T09:10:57.320Z,14.20
2019-02-22T09:13:21.108Z,14.10
2019-02-22T09:15:52.761Z,14.20
2019-02-22T09:18:25.729Z,14.30
2019-02-22T09:20:57.540Z,14.30
2019-02-22T09:23:29.322Z,14.40
2019-02-22T09:26:01.636Z,14.50
2019-02-22T09:28:33.369Z,14.50
2019-02-22T09:31:05.194Z,14.60
2019-02-22T09:33:36.939Z,14.60
2019-02-22T09:36:08.773Z,14.70
2019-02-22T09:38:40.646Z,14.70
2019-02-22T09:41:12.326Z,14.70
2019-02-22T09:43:54.285Z,14.70
2019-02-22T09:46:17.520Z,14.80
2019-02-22T09:48:49.147Z,14.80
2019-02-22T09:51:20.941Z,14.80
2019-02-22T09:53:52.704Z,14.80
2019-02-22T09:56:24.603Z,14.90
2019-02-22T09:58:56.758Z,15.00
2019-02-22T10:01:28.540Z,15.10
2019-02-22T10:04:00.376Z,15.10
2019-02-22T10:06:32.176Z,15.20
2019-02-22T10:09:05.427Z,15.30
2019-02-22T10:11:37.150Z,15.40
2019-02-22T10:14:09.115Z,15.50
2019-02-22T10:16:40.876Z,15.70
2019-02-22T10:19:15.803Z,15.90
2019-02-22T10:21:47.603Z,16.10
2019-02-22T10:24:19.384Z,16.40
2019-02-22T10:26:51.245Z,16.80
2019-02-22T10:29:23.574Z,17.20
2019-02-22T10:31:55.447Z,17.70
2019-02-22T10:34:27.154Z,18.10
2019-02-22T10:36:59.256Z,18.40
2019-02-22T10:39:30.925Z,18.70
2019-02-22T10:42:02.724Z,19.10
2019-02-22T10:44:34.616Z,19.40
2019-02-22T10:47:06.518Z,19.70
2019-02-22T10:49:38.178Z,19.80
2019-02-22T10:52:09.990Z,19.90
2019-02-22T10:54:41.750Z,19.90
2019-02-22T10:57:13.513Z,19.80
2019-02-22T10:59:45.443Z,19.70
2019-02-22T11:02:20.649Z,19.50
2019-02-22T11:04:52.502Z,19.30
2019-02-22T11:07:24.277Z,19.10
2019-02-22T11:09:56.005Z,18.90
2019-02-22T11:12:27.745Z,18.80
2019-02-22T11:14:59.557Z,18.80
2019-02-22T11:17:31.339Z,18.70
2019-02-22T11:20:03.180Z,18.70
2019-02-22T11:22:35.790Z,18.60
2019-02-22T11:25:10.225Z,18.50
2019-02-22T11:27:42.142Z,18.40
2019-02-22T11:30:14.519Z,18.30
2019-02-22T11:32:46.323Z,18.40
2019-02-22T11:35:18.037Z,18.40
2019-02-22T11:37:49.710Z,18.80
2019-02-22T11:40:21.431Z,19.40
2019-02-22T11:42:53.186Z,20.00
2019-02-22T11:45:24.935Z,20.50
2019-02-22T11:47:56.633Z,21.00
2019-02-22T11:50:29.119Z,21.30
2019-02-22T11:53:00.973Z,21.50
2019-02-22T11:55:33.070Z,21.80
2019-02-22T11:58:04.953Z,21.80
2019-02-22T12:00:36.987Z,21.80
2019-02-22T12:03:21.328Z,21.70
2019-02-22T12:05:42.147Z,21.60
2019-02-22T12:08:13.959Z,21.40
2019-02-22T12:10:45.681Z,21.30
2019-02-22T12:13:17.633Z,21.00
2019-02-22T12:15:49.472Z,20.80
2019-02-22T12:18:21.505Z,20.60
2019-02-22T12:20:53.446Z,20.40
2019-02-22T12:23:25.323Z,20.40
2019-02-22T12:25:57.165Z,20.80
2019-02-22T12:28:29.078Z,21.30
2019-02-22T12:31:01.472Z,22.00
2019-02-22T12:33:33.209Z,22.80
2019-02-22T12:36:05.497Z,23.50
2019-02-22T12:38:39.069Z,24.40
2019-02-22T12:41:11.826Z,25.10
2019-02-22T12:43:45.685Z,25.60
2019-02-22T12:46:18.358Z,25.80
2019-02-22T12:48:50.111Z,26.10
2019-02-22T12:51:22.011Z,26.30
2019-02-22T12:53:54.239Z,26.40
2019-02-22T12:56:55.925Z,26.20
2019-02-22T12:58:59.573Z,26.00
2019-02-22T13:01:31.433Z,25.80
2019-02-22T13:04:03.303Z,25.80
2019-02-22T13:06:35.096Z,25.80
2019-02-22T13:09:09.368Z,25.70
2019-02-22T13:11:41.252Z,25.60
2019-02-22T13:14:13.873Z,25.40
2019-02-22T13:16:46.614Z,25.20
2019-02-22T13:19:18.498Z,25.00
2019-02-22T13:21:50.258Z,24.70
2019-02-22T13:24:22.272Z,24.50
2019-02-22T13:26:54.109Z,24.30
2019-02-22T13:29:27.552Z,24.00
2019-02-22T13:31:59.383Z,23.80
2019-02-22T13:34:31.596Z,23.40
2019-02-22T13:37:03.514Z,23.00
2019-02-22T13:39:35.400Z,22.70
2019-02-22T13:42:07.357Z,22.40
2019-02-22T13:44:39.269Z,22.00
2019-02-22T13:47:11.208Z,21.70
2019-02-22T13:49:44.316Z,21.40
2019-02-22T13:52:16.183Z,21.10
2019-02-22T13:54:48.028Z,20.80
2019-02-22T13:57:19.902Z,20.60
2019-02-22T13:59:51.921Z,20.30
2019-02-22T14:02:23.843Z,20.20
2019-02-22T14:04:55.520Z,20.00
2019-02-22T14:07:27.359Z,20.00
2019-02-22T14:09:59.088Z,19.90
2019-02-22T14:12:30.897Z,19.80
2019-02-22T14:15:02.713Z,19.70
2019-02-22T14:17:34.551Z,19.50
2019-02-22T14:20:07.111Z,19.40
2019-02-22T14:22:38.887Z,19.30
2019-02-22T14:25:10.684Z,19.10
2019-02-22T14:27:42.401Z,19.00
2019-02-22T14:30:14.735Z,18.90
2019-02-22T14:32:46.604Z,18.90
2019-02-22T14:35:18.398Z,18.80
2019-02-22T14:37:50.213Z,18.70
2019-02-22T14:40:22.469Z,18.70
2019-02-22T14:42:54.407Z,18.60
2019-02-22T14:45:26.720Z,18.60
2019-02-22T14:47:58.560Z,18.60
2019-02-22T14:50:32.197Z,18.70
2019-02-22T14:53:03.970Z,18.80
2019-02-22T14:55:35.846Z,18.90
2019-02-22T14:58:07.590Z,19.00
2019-02-22T15:00:40.958Z,19.10
2019-02-22T15:03:12.776Z,19.10
2019-02-22T15:05:44.746Z,19.00
2019-02-22T15:08:16.565Z,19.00
2019-02-22T15:10:48.700Z,18.90
2019-02-22T15:13:20.454Z,18.80
2019-02-22T15:16:23.139Z,18.80
2019-02-22T15:18:54.908Z,18.70
2019-02-22T15:21:26.640Z,18.60
2019-02-22T15:23:58.533Z,18.50
2019-02-22T15:26:31.052Z,18.40
2019-02-22T15:29:03.021Z,18.30
2019-02-22T15:31:36.372Z,18.20
2019-02-22T15:34:08.554Z,18.20
2019-02-22T15:36:40.396Z,18.10
2019-02-22T15:39:12.376Z,18.00
2019-02-22T15:41:44.270Z,17.90
2019-02-22T15:44:16.082Z,17.90
2019-02-22T15:46:50.289Z,17.90
2019-02-22T15:49:22.219Z,17.70
2019-02-22T15:51:54.463Z,17.90
2019-02-22T15:54:27.403Z,17.90
2019-02-22T15:56:59.180Z,17.90
2019-02-22T15:59:31.339Z,17.80
2019-02-22T16:02:03.180Z,17.80
2019-02-22T16:04:53.879Z,17.80
2019-02-22T16:07:25.583Z,17.80
2019-02-22T16:09:57.333Z,17.80
2019-02-22T16:12:28.996Z,17.70
2019-02-22T16:15:00.755Z,17.70
2019-02-22T16:17:32.773Z,17.60
2019-02-22T16:20:04.746Z,17.60
2019-02-22T16:22:36.680Z,17.60
2019-02-22T16:25:19.071Z,17.50
2019-02-22T16:27:42.270Z,17.50
2019-02-22T16:30:15.458Z,17.40
2019-02-22T16:32:47.329Z,17.30
2019-02-22T16:35:20.624Z,17.30
2019-02-22T16:37:52.707Z,17.30
2019-02-22T16:40:24.631Z,17.20
2019-02-22T16:42:56.429Z,17.20
2019-02-22T16:45:28.277Z,17.20
2019-02-22T16:47:59.998Z,17.10
2019-02-22T16:50:32.087Z,17.00
2019-02-22T16:53:04.622Z,17.00
2019-02-22T16:55:36.419Z,16.90
2019-02-22T16:58:08.230Z,16.90
2019-02-22T17:00:39.951Z,16.80
2019-02-22T17:03:11.746Z,16.80
2019-02-22T17:05:43.559Z,16.70
2019-02-22T17:08:15.514Z,16.70
2019-02-22T17:10:47.833Z,16.60
2019-02-22T17:13:19.653Z,16.60
2019-02-22T17:15:51.345Z,16.60
2019-02-22T17:18:23.105Z,16.50
2019-02-22T17:20:55.111Z,16.50
2019-02-22T17:23:27.204Z,16.40
2019-02-22T17:25:59.772Z,16.40
2019-02-22T17:28:31.844Z,16.30
2019-02-22T17:31:03.623Z,16.30
2019-02-22T17:33:35.905Z,16.30
2019-02-22T17:36:07.988Z,16.20
2019-02-22T17:38:40.476Z,16.20
2019-02-22T17:41:12.520Z,16.20
2019-02-22T17:43:44.195Z,16.10
2019-02-22T17:46:16.139Z,16.10
2019-02-22T17:48:47.986Z,16.10
2019-02-22T17:51:20.075Z,16.10
2019-02-22T17:53:51.788Z,16.00
2019-02-22T17:56:23.770Z,16.00
2019-02-22T17:59:11.332Z,16.00
2019-02-22T18:01:43.250Z,15.90
2019-02-22T18:04:26.279Z,15.90
2019-02-22T18:07:02.010Z,15.90
2019-02-22T18:09:34.233Z,15.90
2019-02-22T18:12:06.197Z,15.80
2019-02-22T18:14:41.437Z,15.80
2019-02-22T18:17:13.278Z,15.80
2019-02-22T18:19:45.005Z,15.70
2019-02-22T18:22:25.381Z,15.70
2019-02-22T18:24:50.504Z,15.70
2019-02-22T18:27:22.984Z,15.70
2019-02-22T18:29:54.816Z,15.70
2019-02-22T18:32:26.694Z,15.60
2019-02-22T18:34:58.645Z,15.50
2019-02-22T18:37:31.115Z,15.50
2019-02-22T18:40:03.183Z,14.80
2019-02-22T18:42:34.944Z,15.50
2019-02-22T18:45:07.172Z,15.40
2019-02-22T18:47:38.974Z,15.40
2019-02-22T18:50:11.454Z,15.30
2019-02-22T18:52:43.275Z,15.20
2019-02-22T18:55:15.153Z,15.10
2019-02-22T18:57:47.284Z,15.10
2019-02-22T19:00:20.372Z,15.00
2019-02-22T19:02:52.234Z,14.90
2019-02-22T19:05:24.058Z,14.90
2019-02-22T19:07:57.100Z,14.80
2019-02-22T19:10:29.059Z,14.70
2019-02-22T19:13:01.065Z,14.70
2019-02-22T19:15:33.170Z,14.60
2019-02-22T19:18:05.021Z,14.50
2019-02-22T19:20:36.943Z,14.50
2019-02-22T19:23:08.854Z,14.40
2019-02-22T19:25:40.722Z,14.30
2019-02-22T19:28:13.806Z,14.30
2019-02-22T19:30:45.942Z,14.20
2019-02-22T19:33:18.221Z,14.20
2019-02-22T19:35:50.276Z,14.10
2019-02-22T19:38:22.092Z,14.00
2019-02-22T19:40:54.012Z,14.00
2019-02-22T19:43:27.074Z,13.90
2019-02-22T19:45:59.069Z,13.90
2019-02-22T19:48:31.919Z,13.80
2019-02-22T19:51:03.722Z,13.80
2019-02-22T19:53:35.821Z,13.70
2019-02-22T19:56:07.740Z,13.70
2019-02-22T19:58:39.630Z,13.60
2019-02-22T20:01:11.786Z,13.60
2019-02-22T20:03:45.348Z,13.50
2019-02-22T20:06:17.255Z,13.50
2019-02-22T20:08:49.248Z,13.40
2019-02-22T20:11:22.434Z,13.40
2019-02-22T20:13:54.518Z,13.30
2019-02-22T20:16:26.544Z,13.30
2019-02-22T20:18:58.655Z,13.30
2019-02-22T20:21:30.689Z,13.20
2019-02-22T20:24:02.530Z,13.20
2019-02-22T20:26:34.449Z,13.10
2019-02-22T20:29:07.024Z,13.10
2019-02-22T20:31:39.344Z,13.10
2019-02-22T20:34:11.689Z,13.10
2019-02-22T20:36:44.225Z,13.00
2019-02-22T20:39:16.435Z,13.00
2019-02-22T20:41:48.774Z,12.90
2019-02-22T20:44:21.227Z,12.90
2019-02-22T20:46:53.302Z,12.90
2019-02-22T20:49:28.472Z,12.90
2019-02-22T20:52:00.417Z,12.80
2019-02-22T20:54:32.436Z,12.80
2019-02-22T20:57:04.231Z,12.80
2019-02-22T20:59:36.271Z,12.80
2019-02-22T21:02:08.306Z,12.70
2019-02-22T21:04:40.096Z,12.70
2019-02-22T21:07:11.921Z,12.70
2019-02-22T21:09:43.935Z,12.60
2019-02-22T21:12:15.825Z,12.70
2019-02-22T21:14:47.770Z,12.60
2019-02-22T21:17:20.046Z,12.60
2019-02-22T21:19:51.991Z,12.60
2019-02-22T21:22:23.892Z,12.50
2019-02-22T21:24:55.717Z,12.50
2019-02-22T21:27:27.539Z,12.50
2019-02-22T21:29:59.600Z,12.50
2019-02-22T21:32:31.561Z,12.50
2019-02-22T21:35:03.450Z,12.40
2019-02-22T21:37:35.172Z,12.40
2019-02-22T21:40:07.934Z,12.30
2019-02-22T21:42:40.016Z,12.30
2019-02-22T21:45:12.644Z,12.30
2019-02-22T21:47:54.380Z,12.20
2019-02-22T21:50:18.492Z,12.20
2019-02-22T21:52:50.465Z,12.20
2019-02-22T21:55:22.291Z,12.10
2019-02-22T21:57:54.164Z,12.10
2019-02-22T22:00:26.018Z,12.10
2019-02-22T22:02:57.889Z,12.10
2019-02-22T22:05:29.768Z,12.00
2019-02-22T22:08:01.552Z,12.00
2019-02-22T22:10:33.483Z,12.00
2019-02-22T22:13:05.415Z,12.00
2019-02-22T22:15:37.179Z,11.90
2019-02-22T22:18:09.052Z,11.90
2019-02-22T22:20:41.394Z,11.90
2019-02-22T22:23:14.204Z,11.80
2019-02-22T22:25:46.129Z,11.80
2019-02-22T22:28:18.006Z,11.80
2019-02-22T22:30:49.842Z,11.80
2019-02-22T22:33:21.763Z,11.70
2019-02-22T22:35:53.651Z,11.70
2019-02-22T22:38:25.530Z,11.60
2019-02-22T22:40:58.066Z,11.60
2019-02-22T22:43:30.073Z,11.60
2019-02-22T22:46:01.856Z,11.50
2019-02-22T22:48:33.803Z,11.50
2019-02-22T22:51:05.901Z,11.50
2019-02-22T22:53:39.195Z,11.40
2019-02-22T22:56:10.907Z,11.40
2019-02-22T22:58:42.687Z,11.40
2019-02-22T23:01:28.651Z,11.30
2019-02-22T23:04:00.392Z,11.30
2019-02-22T23:06:32.221Z,11.30
2019-02-22T23:09:06.836Z,11.30
2019-02-22T23:11:38.998Z,11.20
2019-02-22T23:14:10.799Z,11.20
2019-02-22T23:16:42.624Z,11.20
2019-02-22T23:19:17.084Z,11.20
2019-02-22T23:21:48.986Z,11.10
2019-02-22T23:24:20.827Z,11.10
2019-02-22T23:26:52.877Z,11.10
2019-02-22T23:29:24.598Z,11.00
2019-02-22T23:31:56.810Z,11.00
2019-02-22T23:34:28.888Z,11.00
2019-02-22T23:37:00.586Z,10.90
2019-02-22T23:39:33.854Z,11.00
2019-02-22T23:42:06.139Z,10.90
2019-02-22T23:44:37.847Z,10.90
2019-02-22T23:47:09.681Z,10.90
2019-02-22T23:49:41.532Z,10.80
2019-02-22T23:52:13.216Z,10.80
2019-02-22T23:54:44.848Z,10.80
2019-02-22T23:57:16.891Z,10.70
2019-02-22T23:59:48.905Z,10.70
